Time;durP1;ratioP1;P1;durP2;ratioP2;P2;SDS_P1;SDS_P2;PMS_P1;PMS_P2;Temp;Humidity;BMP_temperature;BMP_pressure;BME280_temperature;BME280_humidity;BME280_pressure;Samples;Min_cycle;Max_cycle;Signal;HPM_P1;HPM_P2
2023/08/27 00:00:11;;;;;;;22.70;17.88;;;;;;;;;;6179649;23;20017;-87
2023/08/27 00:02:39;;;;;;;23.15;17.88;;;;;;;;;;6180060;23;20015;-87
2023/08/27 00:05:07;;;;;;;21.20;18.10;;;;;;;;;;6181498;23;20032;-87
2023/08/27 00:07:35;;;;;;;22.48;19.00;;;;;;;;;;6183135;23;20023;-87
2023/08/27 00:10:01;;;;;;;21.77;17.70;;;;;;;;;;6179335;23;20523;-87
2023/08/27 00:12:27;;;;;;;21.10;17.67;;;;;;;;;;6181306;23;20442;-87
2023/08/27 00:14:53;;;;;;;21.20;16.45;;;;;;;;;;6181137;23;20454;-86
2023/08/27 00:17:20;;;;;;;19.35;15.80;;;;;;;;;;6181271;23;20017;-87
2023/08/27 00:19:46;;;;;;;21.90;14.80;;;;;;;;;;6179880;23;20013;-87
2023/08/27 00:22:12;;;;;;;17.45;14.00;;;;;;;;;;6181825;23;20071;-87
2023/08/27 00:24:38;;;;;;;17.40;14.05;;;;;;;;;;6181736;23;20017;-87
2023/08/27 00:27:05;;;;;;;16.67;13.73;;;;;;;;;;6182052;23;20472;-87
2023/08/27 00:29:31;;;;;;;14.48;11.73;;;;;;;;;;6182618;23;20054;-87
2023/08/27 00:31:57;;;;;;;12.38;10.98;;;;;;;;;;6183207;23;20032;-87
2023/08/27 00:34:31;;;;;;;12.23;10.10;;;;;;;;;;6182675;23;20446;-87
2023/08/27 00:36:58;;;;;;;13.32;11.68;;;;;;;;;;6179708;23;20025;-87
2023/08/27 00:39:24;;;;;;;12.07;10.77;;;;;;;;;;6181491;23;20518;-87
2023/08/27 00:41:50;;;;;;;12.85;10.93;;;;;;;;;;6178689;23;20013;-87
2023/08/27 00:44:16;;;;;;;15.23;11.25;;;;;;;;;;6182409;23;20016;-87
2023/08/27 00:46:42;;;;;;;14.70;11.80;;;;;;;;;;6182563;23;20017;-87
2023/08/27 00:49:08;;;;;;;14.77;13.02;;;;;;;;;;6183117;23;20446;-87
2023/08/27 00:51:35;;;;;;;15.63;12.65;;;;;;;;;;6182217;23;20092;-87
2023/08/27 00:54:01;;;;;;;15.55;12.90;;;;;;;;;;6181839;23;20020;-87
2023/08/27 00:56:28;;;;;;;15.60;13.05;;;;;;;;;;6204687;23;20624;-87
2023/08/27 00:58:54;;;;;;;16.67;13.70;;;;;;;;;;6210689;23;20020;-87
2023/08/27 01:01:21;;;;;;;16.42;12.98;;;;;;;;;;6209651;23;20024;-87
2023/08/27 01:03:47;;;;;;;15.32;13.23;;;;;;;;;;6212123;23;20446;-87
2023/08/27 01:06:13;;;;;;;14.77;13.10;;;;;;;;;;6186509;23;20392;-87
2023/08/27 01:08:43;;;;;;;14.52;12.00;;;;;;;;;;6187306;23;20043;-87
2023/08/27 01:11:44;;;;;;;12.45;11.25;;;;;;;;;;6212796;23;20338;-87
2023/08/27 01:14:11;;;;;;;11.55;10.32;;;;;;;;;;6153366;23;20509;-87
2023/08/27 01:16:37;;;;;;;12.15;10.40;;;;;;;;;;6153684;23;20013;-87
2023/08/27 01:19:10;;;;;;;10.60;9.38;;;;;;;;;;6180643;23;20028;-87
2023/08/27 01:21:36;;;;;;;11.23;9.98;;;;;;;;;;6154764;23;20261;-87
2023/08/27 01:24:02;;;;;;;11.25;9.95;;;;;;;;;;6180619;23;20064;-87
2023/08/27 01:26:37;;;;;;;12.00;9.45;;;;;;;;;;6179588;23;20009;-87
2023/08/27 01:29:10;;;;;;;12.15;9.95;;;;;;;;;;6179962;23;20139;-87
2023/08/27 01:31:40;;;;;;;11.55;10.32;;;;;;;;;;6179363;23;20013;-87
2023/08/27 01:34:08;;;;;;;13.25;10.23;;;;;;;;;;6155383;23;20039;-87
2023/08/27 01:36:35;;;;;;;11.40;10.05;;;;;;;;;;6179151;23;20387;-87
2023/08/27 01:39:03;;;;;;;11.63;10.10;;;;;;;;;;6180049;23;20013;-87
2023/08/27 01:41:29;;;;;;;12.13;10.82;;;;;;;;;;6179339;23;20045;-87
2023/08/27 01:43:56;;;;;;;14.27;10.60;;;;;;;;;;6179774;23;20043;-87
2023/08/27 01:46:22;;;;;;;13.25;11.60;;;;;;;;;;6154743;23;20129;-86
2023/08/27 01:48:48;;;;;;;12.63;10.43;;;;;;;;;;6179279;23;20048;-87
2023/08/27 01:51:14;;;;;;;12.65;11.23;;;;;;;;;;6212943;23;20016;-86
2023/08/27 01:53:40;;;;;;;13.02;10.75;;;;;;;;;;6212846;23;20438;-87
2023/08/27 01:56:06;;;;;;;12.10;10.75;;;;;;;;;;6185132;23;20078;-87
2023/08/27 01:58:32;;;;;;;13.80;10.93;;;;;;;;;;6186339;23;20095;-88
2023/08/27 02:00:59;;;;;;;13.35;11.48;;;;;;;;;;6185015;23;20013;-87
2023/08/27 02:03:25;;;;;;;13.05;11.57;;;;;;;;;;6187989;23;20019;-87
2023/08/27 02:05:51;;;;;;;12.70;10.95;;;;;;;;;;6187016;23;20016;-87
2023/08/27 02:08:17;;;;;;;13.23;11.73;;;;;;;;;;6213469;23;20260;-87
2023/08/27 02:10:43;;;;;;;12.27;10.63;;;;;;;;;;6185624;23;20048;-87
2023/08/27 02:13:09;;;;;;;14.27;11.32;;;;;;;;;;6213480;23;20013;-87
2023/08/27 02:15:35;;;;;;;12.63;11.32;;;;;;;;;;6213784;23;20031;-87
2023/08/27 02:18:01;;;;;;;12.55;10.23;;;;;;;;;;6212380;23;20060;-87
2023/08/27 02:20:27;;;;;;;13.75;12.32;;;;;;;;;;6213071;23;20013;-87
2023/08/27 02:22:54;;;;;;;12.52;11.05;;;;;;;;;;6212679;23;20503;-88
2023/08/27 02:25:20;;;;;;;13.38;11.43;;;;;;;;;;6212247;23;20017;-87
2023/08/27 02:27:46;;;;;;;13.30;11.43;;;;;;;;;;6212540;23;20044;-87
2023/08/27 02:30:12;;;;;;;12.18;10.88;;;;;;;;;;6213125;23;20021;-87
2023/08/27 02:32:38;;;;;;;12.98;11.15;;;;;;;;;;6211134;23;20434;-87
2023/08/27 02:35:04;;;;;;;13.10;10.95;;;;;;;;;;6212856;23;20453;-87
2023/08/27 02:37:30;;;;;;;12.38;11.07;;;;;;;;;;6185550;23;20019;-87
2023/08/27 02:39:56;;;;;;;14.40;12.10;;;;;;;;;;6184824;23;20028;-87
2023/08/27 02:42:22;;;;;;;14.25;11.48;;;;;;;;;;6212455;23;20013;-87
2023/08/27 02:44:48;;;;;;;13.07;11.43;;;;;;;;;;6212365;23;20464;-87
2023/08/27 02:47:14;;;;;;;13.60;11.25;;;;;;;;;;6211252;23;20021;-87
2023/08/27 02:49:40;;;;;;;14.55;12.23;;;;;;;;;;6185558;23;20441;-88
2023/08/27 02:52:06;;;;;;;13.30;11.65;;;;;;;;;;6185483;23;20047;-87
2023/08/27 02:54:32;;;;;;;15.77;13.18;;;;;;;;;;6212189;23;20021;-87
2023/08/27 02:56:59;;;;;;;17.90;13.20;;;;;;;;;;6212238;23;20020;-87
2023/08/27 02:59:25;;;;;;;18.73;13.45;;;;;;;;;;6212520;23;20159;-87
2023/08/27 03:01:54;;;;;;;14.27;12.73;;;;;;;;;;6212100;23;20028;-87
2023/08/27 03:04:20;;;;;;;14.25;12.57;;;;;;;;;;6210615;23;20028;-88
2023/08/27 03:06:46;;;;;;;17.15;12.90;;;;;;;;;;6208546;23;20027;-87
2023/08/27 03:09:12;;;;;;;16.02;12.70;;;;;;;;;;6210869;23;20024;-87
2023/08/27 03:11:38;;;;;;;14.07;12.57;;;;;;;;;;6185501;23;20016;-87
2023/08/27 03:14:04;;;;;;;14.45;11.85;;;;;;;;;;6185076;23;20418;-87
2023/08/27 03:16:30;;;;;;;14.38;12.18;;;;;;;;;;6212076;23;20019;-86
2023/08/27 03:18:56;;;;;;;16.55;12.48;;;;;;;;;;6212500;23;20024;-87
2023/08/27 03:21:22;;;;;;;13.23;11.82;;;;;;;;;;6210386;23;20067;-87
2023/08/27 03:23:48;;;;;;;13.45;11.50;;;;;;;;;;6184983;23;20024;-87
2023/08/27 03:26:14;;;;;;;15.30;12.57;;;;;;;;;;6212095;23;20016;-87
2023/08/27 03:28:40;;;;;;;13.05;11.65;;;;;;;;;;6212244;23;20019;-87
2023/08/27 03:31:06;;;;;;;14.02;11.82;;;;;;;;;;6211851;23;20055;-88
2023/08/27 03:33:32;;;;;;;14.48;12.10;;;;;;;;;;6183888;23;20063;-87
2023/08/27 03:35:59;;;;;;;13.93;12.02;;;;;;;;;;6184188;23;20027;-87
2023/08/27 03:38:25;;;;;;;13.77;11.30;;;;;;;;;;6184938;23;20024;-87
2023/08/27 03:40:52;;;;;;;13.25;11.85;;;;;;;;;;6185156;23;20012;-87
2023/08/27 03:43:18;;;;;;;14.48;12.23;;;;;;;;;;6211524;23;20331;-87
2023/08/27 03:45:44;;;;;;;15.00;11.75;;;;;;;;;;6211500;23;20476;-87
2023/08/27 03:48:10;;;;;;;13.80;11.43;;;;;;;;;;6210996;23;20023;-88
2023/08/27 03:50:37;;;;;;;14.30;12.10;;;;;;;;;;6211050;23;20079;-87
2023/08/27 03:53:06;;;;;;;14.93;12.38;;;;;;;;;;6212029;23;20009;-87
2023/08/27 03:55:38;;;;;;;13.52;11.88;;;;;;;;;;6211880;23;20024;-88
2023/08/27 03:58:05;;;;;;;13.85;12.23;;;;;;;;;;6184222;23;20028;-87
2023/08/27 04:00:32;;;;;;;15.68;12.38;;;;;;;;;;6212320;23;20012;-88
2023/08/27 04:02:58;;;;;;;14.98;12.75;;;;;;;;;;6184592;23;20083;-87
2023/08/27 04:05:24;;;;;;;15.23;11.82;;;;;;;;;;6211230;23;20095;-88
2023/08/27 04:07:50;;;;;;;15.13;12.07;;;;;;;;;;6211476;23;20464;-87
2023/08/27 04:10:17;;;;;;;16.30;12.30;;;;;;;;;;6214186;23;20020;-88
2023/08/27 04:12:43;;;;;;;14.90;12.45;;;;;;;;;;6213178;23;20351;-87
2023/08/27 04:15:09;;;;;;;15.23;11.85;;;;;;;;;;6214524;23;20047;-87
2023/08/27 04:17:35;;;;;;;16.33;12.55;;;;;;;;;;6185780;23;20016;-87
2023/08/27 04:20:02;;;;;;;17.25;12.05;;;;;;;;;;6213197;23;20012;-88
2023/08/27 04:22:28;;;;;;;14.48;12.98;;;;;;;;;;6213641;23;20455;-87
2023/08/27 04:24:55;;;;;;;16.02;12.05;;;;;;;;;;6211602;23;20341;-88
2023/08/27 04:27:21;;;;;;;15.38;12.30;;;;;;;;;;6211827;23;20020;-88
2023/08/27 04:29:47;;;;;;;15.23;12.00;;;;;;;;;;6185178;23;20088;-88
2023/08/27 04:32:13;;;;;;;13.05;11.55;;;;;;;;;;6212675;23;20074;-87
2023/08/27 04:34:39;;;;;;;15.20;11.90;;;;;;;;;;6212532;23;20088;-87
2023/08/27 04:37:05;;;;;;;15.13;11.75;;;;;;;;;;6212111;23;20024;-88
2023/08/27 04:39:31;;;;;;;14.43;11.25;;;;;;;;;;6184738;23;20025;-88
2023/08/27 04:41:58;;;;;;;14.95;12.73;;;;;;;;;;6184415;23;20017;-89
2023/08/27 04:44:26;;;;;;;15.32;11.95;;;;;;;;;;6184446;23;20025;-88
2023/08/27 04:46:52;;;;;;;14.52;11.95;;;;;;;;;;6210349;23;20012;-88
2023/08/27 04:49:18;;;;;;;14.70;11.93;;;;;;;;;;6183771;23;20016;-87
2023/08/27 04:51:44;;;;;;;14.40;11.80;;;;;;;;;;6211909;23;20091;-87
2023/08/27 04:54:10;;;;;;;15.40;13.35;;;;;;;;;;6184901;23;20023;-87
2023/08/27 04:56:37;;;;;;;14.38;11.57;;;;;;;;;;6211409;23;20070;-87
2023/08/27 04:59:03;;;;;;;13.93;11.70;;;;;;;;;;6211451;23;20021;-88
2023/08/27 05:01:29;;;;;;;15.65;12.88;;;;;;;;;;6210657;23;20442;-87
2023/08/27 05:03:55;;;;;;;17.17;12.88;;;;;;;;;;6209480;23;20415;-87
2023/08/27 05:06:21;;;;;;;14.88;12.30;;;;;;;;;;6211572;23;20450;-88
2023/08/27 05:08:47;;;;;;;14.23;12.13;;;;;;;;;;6211550;23;20438;-87
2023/08/27 05:11:13;;;;;;;21.23;12.73;;;;;;;;;;6159858;23;20395;-87
2023/08/27 05:13:39;;;;;;;13.85;11.98;;;;;;;;;;6210144;23;20485;-87
2023/08/27 05:16:05;;;;;;;14.45;11.55;;;;;;;;;;6183405;23;20025;-88
2023/08/27 05:18:31;;;;;;;13.88;12.02;;;;;;;;;;6210753;23;20040;-88
2023/08/27 05:20:57;;;;;;;16.45;12.23;;;;;;;;;;6211669;23;20019;-88
2023/08/27 05:23:23;;;;;;;14.25;12.27;;;;;;;;;;6212156;23;20008;-87
2023/08/27 05:25:49;;;;;;;13.80;11.85;;;;;;;;;;6211453;23;20154;-87
2023/08/27 05:28:15;;;;;;;15.80;12.43;;;;;;;;;;6209633;23;20024;-88
2023/08/27 05:30:42;;;;;;;13.50;11.82;;;;;;;;;;6183968;23;20449;-87
2023/08/27 05:33:08;;;;;;;14.63;11.15;;;;;;;;;;6208521;23;20058;-88
2023/08/27 05:35:34;;;;;;;14.52;10.70;;;;;;;;;;6211686;23;20020;-88
2023/08/27 05:38:00;;;;;;;15.02;11.25;;;;;;;;;;6212019;23;20009;-93
2023/08/27 05:40:26;;;;;;;13.65;11.45;;;;;;;;;;6185329;23;20023;-89
2023/08/27 05:42:52;;;;;;;13.63;11.05;;;;;;;;;;6211563;23;20043;-88
2023/08/27 05:45:18;;;;;;;14.60;10.93;;;;;;;;;;6211905;23;20016;-90
2023/08/27 05:47:44;;;;;;;14.27;11.05;;;;;;;;;;6209771;23;20020;-92
2023/08/27 05:50:10;;;;;;;13.75;10.98;;;;;;;;;;6211263;23;20027;-88
2023/08/27 05:52:37;;;;;;;13.57;11.15;;;;;;;;;;6211682;23;20087;-88
2023/08/27 05:55:03;;;;;;;13.18;10.55;;;;;;;;;;6212839;23;20027;-88
2023/08/27 05:57:29;;;;;;;11.75;10.27;;;;;;;;;;6186366;23;20028;-88
2023/08/27 05:59:55;;;;;;;12.10;10.43;;;;;;;;;;6213192;23;20356;-88
2023/08/27 06:02:21;;;;;;;12.18;10.10;;;;;;;;;;6211497;23;20074;-88
2023/08/27 06:04:47;;;;;;;12.80;10.93;;;;;;;;;;6211542;23;20087;-88
2023/08/27 06:07:13;;;;;;;12.27;10.40;;;;;;;;;;6186754;23;20031;-88
2023/08/27 06:09:39;;;;;;;11.73;9.70;;;;;;;;;;6184285;23;20093;-89
2023/08/27 06:12:06;;;;;;;13.82;11.13;;;;;;;;;;6184048;23;20020;-93
2023/08/27 06:14:32;;;;;;;12.90;10.10;;;;;;;;;;6186548;23;20319;-88
2023/08/27 06:16:58;;;;;;;11.82;10.00;;;;;;;;;;6214187;23;20380;-88
2023/08/27 06:19:24;;;;;;;12.52;10.27;;;;;;;;;;6214099;23;20385;-87
2023/08/27 06:21:50;;;;;;;12.02;10.48;;;;;;;;;;6212746;23;20083;-88
2023/08/27 06:24:16;;;;;;;12.50;9.65;;;;;;;;;;6212969;23;20008;-88
2023/08/27 06:26:42;;;;;;;10.93;9.63;;;;;;;;;;6188179;23;20066;-92
2023/08/27 06:29:08;;;;;;;13.73;10.93;;;;;;;;;;6217275;23;20021;-94
2023/08/27 06:31:34;;;;;;;12.20;10.15;;;;;;;;;;6184560;23;20016;-93
2023/08/27 06:34:00;;;;;;;13.13;10.52;;;;;;;;;;6187565;23;20021;-94
2023/08/27 06:36:27;;;;;;;14.77;11.18;;;;;;;;;;6212701;23;20042;-93
2023/08/27 06:38:54;;;;;;;14.07;10.90;;;;;;;;;;6187410;23;20029;-94
2023/08/27 06:41:20;;;;;;;14.63;11.40;;;;;;;;;;6212944;23;20074;-95
2023/08/27 06:43:46;;;;;;;14.23;11.40;;;;;;;;;;6187585;23;20465;-92
2023/08/27 06:46:12;;;;;;;13.82;10.85;;;;;;;;;;6185781;23;20036;-94
2023/08/27 06:48:38;;;;;;;12.32;11.02;;;;;;;;;;6187307;23;20012;-94
2023/08/27 06:51:04;;;;;;;11.95;10.38;;;;;;;;;;6187070;23;20013;-94
2023/08/27 06:53:30;;;;;;;12.38;11.05;;;;;;;;;;6213231;23;20377;-89
2023/08/27 06:55:56;;;;;;;11.95;10.43;;;;;;;;;;6213785;23;20027;-92
2023/08/27 06:58:22;;;;;;;13.88;11.32;;;;;;;;;;6215191;23;20066;-91
2023/08/27 07:00:48;;;;;;;13.43;10.55;;;;;;;;;;6212736;23;20017;-90
2023/08/27 07:03:14;;;;;;;13.80;11.07;;;;;;;;;;6214023;23;20028;-86
2023/08/27 07:05:40;;;;;;;12.07;10.75;;;;;;;;;;6187882;23;20009;-91
2023/08/27 07:08:06;;;;;;;13.65;11.05;;;;;;;;;;6188224;23;20017;-94
2023/08/27 07:10:32;;;;;;;11.80;10.38;;;;;;;;;;6189911;23;20016;-95
2023/08/27 07:12:58;;;;;;;17.77;11.25;;;;;;;;;;6185859;23;20021;-92
2023/08/27 07:15:25;;;;;;;11.55;9.93;;;;;;;;;;6211075;23;20012;-91
2023/08/27 07:17:51;;;;;;;13.27;10.40;;;;;;;;;;6212244;23;20062;-92
2023/08/27 07:20:17;;;;;;;14.43;10.52;;;;;;;;;;6212635;23;20009;-91
2023/08/27 07:22:43;;;;;;;17.08;10.57;;;;;;;;;;6212990;23;20012;-92
2023/08/27 07:25:10;;;;;;;12.52;10.35;;;;;;;;;;6186900;23;20020;-91
2023/08/27 07:27:36;;;;;;;11.60;10.00;;;;;;;;;;6186585;23;20025;-91
2023/08/27 07:30:02;;;;;;;13.98;10.00;;;;;;;;;;6213976;23;20017;-92
2023/08/27 07:32:28;;;;;;;11.90;9.98;;;;;;;;;;6213728;23;20520;-92
2023/08/27 07:34:54;;;;;;;13.93;9.63;;;;;;;;;;6213051;23;20512;-93
2023/08/27 07:37:20;;;;;;;12.85;10.40;;;;;;;;;;6196427;22;20382;-86
2023/08/27 07:39:51;;;;;;;18.38;9.95;;;;;;;;;;6224400;23;20091;-88
2023/08/27 07:42:26;;;;;;;13.63;9.93;;;;;;;;;;6224339;23;20024;-87
2023/08/27 07:44:54;;;;;;;10.55;9.45;;;;;;;;;;6197742;23;20016;-87
2023/08/27 07:47:21;;;;;;;10.23;8.98;;;;;;;;;;6198771;23;20016;-87
2023/08/27 07:49:54;;;;;;;11.15;8.70;;;;;;;;;;6192614;23;20017;-88
2023/08/27 07:52:23;;;;;;;10.43;6.90;;;;;;;;;;6192306;23;20028;-88
2023/08/27 07:54:50;;;;;;;9.77;6.68;;;;;;;;;;6216297;23;20020;-88
2023/08/27 07:57:23;;;;;;;7.78;6.00;;;;;;;;;;6191568;23;20016;-87
2023/08/27 07:59:51;;;;;;;9.18;5.90;;;;;;;;;;6186568;23;20052;-87
2023/08/27 08:02:18;;;;;;;7.50;6.20;;;;;;;;;;6191915;23;20013;-88
2023/08/27 08:04:48;;;;;;;7.05;5.57;;;;;;;;;;6191506;23;20024;-88
2023/08/27 08:07:20;;;;;;;7.55;4.95;;;;;;;;;;6190778;23;20020;-87
2023/08/27 08:09:48;;;;;;;7.22;4.43;;;;;;;;;;6190732;23;20017;-87
2023/08/27 08:12:14;;;;;;;6.65;4.75;;;;;;;;;;6192083;23;20025;-87
2023/08/27 08:14:47;;;;;;;6.38;3.95;;;;;;;;;;6190635;23;20499;-87
2023/08/27 08:17:22;;;;;;;8.00;4.10;;;;;;;;;;6190443;23;20021;-88
2023/08/27 08:19:52;;;;;;;4.55;3.28;;;;;;;;;;6190830;23;20027;-87
2023/08/27 08:22:18;;;;;;;4.63;2.80;;;;;;;;;;6218321;23;20352;-87
2023/08/27 08:24:47;;;;;;;4.40;2.53;;;;;;;;;;6216373;23;20024;-87
2023/08/27 08:27:19;;;;;;;3.38;2.28;;;;;;;;;;6191781;23;20020;-87
2023/08/27 08:29:50;;;;;;;2.80;2.23;;;;;;;;;;6216307;23;20012;-87
2023/08/27 08:32:16;;;;;;;2.40;2.17;;;;;;;;;;6195786;23;20016;-87
2023/08/27 08:34:42;;;;;;;2.72;1.80;;;;;;;;;;6203456;23;20016;-87
2023/08/27 08:37:11;;;;;;;2.33;1.50;;;;;;;;;;6221051;23;20016;-87
2023/08/27 08:39:37;;;;;;;2.22;1.17;;;;;;;;;;6190082;23;20079;-87
2023/08/27 08:42:09;;;;;;;1.75;1.40;;;;;;;;;;6214617;23;20096;-87
2023/08/27 08:44:38;;;;;;;2.13;1.40;;;;;;;;;;6189598;23;20016;-86
2023/08/27 08:47:04;;;;;;;1.80;1.05;;;;;;;;;;6189677;23;20020;-87
2023/08/27 08:49:31;;;;;;;1.35;1.25;;;;;;;;;;6189325;23;20012;-87
2023/08/27 08:52:00;;;;;;;1.33;1.20;;;;;;;;;;6214478;23;20012;-89
2023/08/27 08:54:29;;;;;;;1.30;1.20;;;;;;;;;;6215333;23;20024;-88
2023/08/27 08:56:57;;;;;;;1.92;1.33;;;;;;;;;;6215462;23;20043;-88
2023/08/27 08:59:27;;;;;;;1.02;0.93;;;;;;;;;;6189813;23;20017;-87
2023/08/27 09:01:56;;;;;;;1.30;1.10;;;;;;;;;;6189720;23;20021;-88
2023/08/27 09:04:23;;;;;;;1.30;1.20;;;;;;;;;;6189656;23;20012;-86
2023/08/27 09:06:51;;;;;;;1.10;1.00;;;;;;;;;;6217015;23;20016;-85
2023/08/27 09:09:20;;;;;;;1.58;1.33;;;;;;;;;;6217391;23;20039;-85
2023/08/27 09:11:50;;;;;;;1.42;1.23;;;;;;;;;;6190576;23;20020;-85
2023/08/27 09:14:16;;;;;;;1.17;1.02;;;;;;;;;;6217937;23;20020;-86
2023/08/27 09:16:42;;;;;;;1.50;1.10;;;;;;;;;;6218053;23;20453;-86
2023/08/27 09:19:09;;;;;;;1.40;1.20;;;;;;;;;;6218482;23;20016;-85
2023/08/27 09:21:35;;;;;;;1.90;1.30;;;;;;;;;;6190237;23;20021;-87
2023/08/27 09:24:01;;;;;;;1.27;1.17;;;;;;;;;;6214210;23;20013;-88
2023/08/27 09:26:27;;;;;;;1.70;1.20;;;;;;;;;;6190951;23;20452;-88
2023/08/27 09:28:55;;;;;;;1.48;1.20;;;;;;;;;;6217873;23;20290;-86
2023/08/27 09:31:40;;;;;;;1.27;1.17;;;;;;;;;;6217031;23;20021;-87
2023/08/27 09:34:07;;;;;;;1.73;1.50;;;;;;;;;;6191718;23;20320;-88
2023/08/27 09:36:35;;;;;;;1.38;1.10;;;;;;;;;;6216176;23;20016;-87
2023/08/27 09:39:04;;;;;;;1.50;1.23;;;;;;;;;;6191988;23;20021;-86
2023/08/27 09:41:30;;;;;;;1.38;1.20;;;;;;;;;;6217652;23;20043;-87
2023/08/27 09:43:56;;;;;;;1.48;1.10;;;;;;;;;;6217924;23;20025;-88
2023/08/27 09:46:23;;;;;;;2.22;1.10;;;;;;;;;;6216521;23;20024;-87
2023/08/27 09:49:15;;;;;;;1.52;1.30;;;;;;;;;;6191631;23;20055;-86
2023/08/27 09:51:42;;;;;;;2.42;1.48;;;;;;;;;;6185243;23;20020;-87
2023/08/27 09:54:19;;;;;;;2.33;1.20;;;;;;;;;;6217003;23;20028;-87
2023/08/27 09:56:46;;;;;;;1.95;1.30;;;;;;;;;;6217744;23;20372;-90
2023/08/27 09:59:15;;;;;;;1.35;1.25;;;;;;;;;;6216029;23;20013;-88
2023/08/27 10:01:41;;;;;;;1.20;1.10;;;;;;;;;;6217837;23;20028;-86
2023/08/27 10:04:07;;;;;;;2.08;1.20;;;;;;;;;;6217607;23;20475;-88
2023/08/27 10:06:39;;;;;;;2.40;1.42;;;;;;;;;;6217481;23;20064;-87
2023/08/27 10:09:06;;;;;;;2.17;1.40;;;;;;;;;;6190091;23;20071;-88
2023/08/27 10:11:36;;;;;;;1.85;1.38;;;;;;;;;;6216923;23;20023;-89
2023/08/27 10:14:05;;;;;;;1.50;1.40;;;;;;;;;;6217158;23;20036;-89
2023/08/27 10:16:34;;;;;;;2.10;1.60;;;;;;;;;;6215039;23;20013;-84
2023/08/27 10:19:01;;;;;;;1.90;1.50;;;;;;;;;;6216678;23;20120;-86
2023/08/27 10:21:27;;;;;;;3.78;1.80;;;;;;;;;;6215438;23;20017;-86
2023/08/27 10:23:54;;;;;;;2.88;1.40;;;;;;;;;;6215228;23;20012;-87
2023/08/27 10:26:23;;;;;;;2.28;1.48;;;;;;;;;;6216764;23;20052;-86
2023/08/27 10:28:53;;;;;;;3.03;1.70;;;;;;;;;;6216873;23;20016;-86
2023/08/27 10:31:19;;;;;;;3.60;2.00;;;;;;;;;;6215048;23;20016;-85
2023/08/27 10:33:45;;;;;;;2.22;1.83;;;;;;;;;;6189838;23;20016;-86
2023/08/27 10:36:16;;;;;;;2.83;1.70;;;;;;;;;;6189454;23;20032;-85
2023/08/27 10:39:01;;;;;;;;;;;;;;;;;;;;;
2023/08/27 10:41:41;;;;;;;3.17;2.05;;;;;;;;;;6222054;23;20383;-86
2023/08/27 10:44:10;;;;;;;4.47;2.00;;;;;;;;;;6191947;23;20456;-85
2023/08/27 10:46:39;;;;;;;2.05;1.70;;;;;;;;;;6215795;23;20096;-86
2023/08/27 10:49:17;;;;;;;2.90;2.00;;;;;;;;;;6215103;23;20020;-86
2023/08/27 10:51:43;;;;;;;6.40;2.13;;;;;;;;;;6215754;23;20020;-86
2023/08/27 10:54:30;;;;;;;4.40;2.28;;;;;;;;;;6215660;23;20376;-86
2023/08/27 10:56:58;;;;;;;;;;;;;;;;;;6215230;23;20446;-87
2023/08/27 10:59:30;;;;;;;4.10;2.20;;;;;;;;;;6190611;23;19926;-86
2023/08/27 11:01:56;;;;;;;3.53;2.30;;;;;;;;;;6190523;23;20039;-85
2023/08/27 11:04:33;;;;;;;3.75;2.38;;;;;;;;;;6216580;23;20027;-87
2023/08/27 11:07:10;;;;;;;4.32;2.25;;;;;;;;;;6190949;23;20020;-86
2023/08/27 11:09:47;;;;;;;3.10;2.40;;;;;;;;;;6215682;23;20440;-86
2023/08/27 11:12:22;;;;;;;3.28;2.30;;;;;;;;;;6211140;23;20028;-87
2023/08/27 11:14:48;;;;;;;3.80;2.40;;;;;;;;;;6191319;23;20017;-87
2023/08/27 11:17:22;;;;;;;2.85;2.30;;;;;;;;;;6189769;23;20040;-86
2023/08/27 11:19:48;;;;;;;3.17;2.10;;;;;;;;;;6213743;23;20020;-85
2023/08/27 11:22:17;;;;;;;3.97;2.10;;;;;;;;;;6190009;23;20021;-86
2023/08/27 11:24:48;;;;;;;2.90;2.20;;;;;;;;;;6190471;23;20021;-86
2023/08/27 11:27:17;;;;;;;3.38;2.20;;;;;;;;;;6216629;23;20020;-86
2023/08/27 11:29:48;;;;;;;4.93;2.40;;;;;;;;;;6193646;23;20013;-86
2023/08/27 11:32:15;;;;;;;3.75;2.60;;;;;;;;;;6191240;23;20021;-86
2023/08/27 11:34:43;;;;;;;3.47;2.47;;;;;;;;;;6216354;23;20027;-86
2023/08/27 11:37:12;;;;;;;4.18;2.33;;;;;;;;;;6216832;23;20368;-87
2023/08/27 11:39:39;;;;;;;3.83;2.70;;;;;;;;;;6218528;23;20044;-86
2023/08/27 11:42:10;;;;;;;3.65;2.45;;;;;;;;;;6191456;23;20021;-87
2023/08/27 11:44:44;;;;;;;3.90;2.63;;;;;;;;;;6216026;23;20017;-85
2023/08/27 11:47:11;;;;;;;4.32;2.03;;;;;;;;;;6190859;23;20056;-86
2023/08/27 11:49:37;;;;;;;2.47;1.70;;;;;;;;;;6215397;23;20017;-86
2023/08/27 11:52:03;;;;;;;2.90;1.40;;;;;;;;;;6215121;23;20473;-86
2023/08/27 11:54:34;;;;;;;3.45;1.33;;;;;;;;;;6215194;23;20335;-85
2023/08/27 11:57:04;;;;;;;3.72;1.52;;;;;;;;;;6215004;23;20056;-85
2023/08/27 11:59:31;;;;;;;1.85;1.30;;;;;;;;;;6190333;23;20031;-86
2023/08/27 12:01:57;;;;;;;2.08;1.35;;;;;;;;;;6189870;23;20016;-86
2023/08/27 12:04:32;;;;;;;2.97;1.30;;;;;;;;;;6190261;23;20367;-86
2023/08/27 12:07:02;;;;;;;2.92;1.30;;;;;;;;;;6214792;23;20039;-86
2023/08/27 12:09:33;;;;;;;2.10;1.50;;;;;;;;;;6190186;23;20018;-85
2023/08/27 12:12:07;;;;;;;3.20;1.30;;;;;;;;;;6189297;23;20290;-86
2023/08/27 12:14:34;;;;;;;3.13;1.73;;;;;;;;;;6189572;23;20025;-86
2023/08/27 12:17:09;;;;;;;1.80;1.30;;;;;;;;;;6214339;23;20436;-86
2023/08/27 12:19:36;;;;;;;5.15;1.42;;;;;;;;;;6214447;23;20092;-86
2023/08/27 12:22:02;;;;;;;1.50;1.10;;;;;;;;;;6188834;23;20028;-86
2023/08/27 12:24:32;;;;;;;3.15;1.58;;;;;;;;;;6188541;23;20467;-86
2023/08/27 12:27:04;;;;;;;2.35;1.30;;;;;;;;;;6214373;23;20463;-86
2023/08/27 12:29:32;;;;;;;1.95;1.35;;;;;;;;;;6215207;23;20092;-86
2023/08/27 12:31:59;;;;;;;2.67;1.60;;;;;;;;;;6214304;23;20088;-86
2023/08/27 12:34:47;;;;;;;2.35;1.27;;;;;;;;;;6189054;23;20020;-87
2023/08/27 12:37:15;;;;;;;3.40;1.55;;;;;;;;;;6188689;23;20020;-86
2023/08/27 12:39:42;;;;;;;1.48;1.38;;;;;;;;;;6188778;23;20047;-87
2023/08/27 12:42:09;;;;;;;3.88;1.33;;;;;;;;;;6189751;23;20020;-86
2023/08/27 12:44:35;;;;;;;2.90;1.50;;;;;;;;;;6215478;23;20476;-86
2023/08/27 12:47:05;;;;;;;3.42;1.40;;;;;;;;;;6196505;23;20472;-86
2023/08/27 12:49:32;;;;;;;3.42;1.27;;;;;;;;;;6219837;23;20344;-86
2023/08/27 12:51:58;;;;;;;4.03;1.40;;;;;;;;;;6215683;23;20024;-86
2023/08/27 12:54:25;;;;;;;2.55;1.20;;;;;;;;;;6213772;23;20149;-85
2023/08/27 12:56:51;;;;;;;1.35;1.17;;;;;;;;;;6214076;23;20087;-86
2023/08/27 12:59:19;;;;;;;1.55;1.00;;;;;;;;;;6189580;23;20016;-87
2023/08/27 13:01:46;;;;;;;2.83;1.02;;;;;;;;;;6216063;23;20028;-86
2023/08/27 13:04:13;;;;;;;1.58;1.20;;;;;;;;;;6191191;23;20020;-87
2023/08/27 13:06:40;;;;;;;2.25;1.20;;;;;;;;;;6191205;23;20052;-87
2023/08/27 13:09:09;;;;;;;2.40;1.10;;;;;;;;;;6216327;23;20342;-87
2023/08/27 13:11:36;;;;;;;1.38;1.08;;;;;;;;;;6217039;23;20467;-87
2023/08/27 13:14:02;;;;;;;3.05;1.40;;;;;;;;;;6215768;23;20456;-87
2023/08/27 13:16:28;;;;;;;3.10;1.23;;;;;;;;;;6190746;23;20023;-87
2023/08/27 13:18:56;;;;;;;2.92;1.58;;;;;;;;;;6216210;23;20032;-87
2023/08/27 13:21:22;;;;;;;2.88;1.30;;;;;;;;;;6216752;23;20023;-86
2023/08/27 13:23:49;;;;;;;2.80;1.35;;;;;;;;;;6191189;23;20012;-86
2023/08/27 13:26:15;;;;;;;4.30;1.40;;;;;;;;;;6216563;23;20035;-87
2023/08/27 13:28:42;;;;;;;2.53;1.65;;;;;;;;;;6190945;23;20023;-86
2023/08/27 13:31:08;;;;;;;2.50;1.40;;;;;;;;;;6216232;23;20016;-86
2023/08/27 13:33:34;;;;;;;4.47;1.70;;;;;;;;;;6190918;23;20017;-87
2023/08/27 13:36:01;;;;;;;1.88;1.40;;;;;;;;;;6190595;23;20017;-87
2023/08/27 13:38:27;;;;;;;2.63;1.38;;;;;;;;;;6216786;23;20049;-86
2023/08/27 13:40:53;;;;;;;3.13;1.50;;;;;;;;;;6190941;23;20051;-86
2023/08/27 13:43:20;;;;;;;3.28;1.80;;;;;;;;;;6216632;23;20016;-86
2023/08/27 13:45:46;;;;;;;1.67;1.42;;;;;;;;;;6191008;23;20074;-87
2023/08/27 13:48:12;;;;;;;3.83;1.60;;;;;;;;;;6191508;23;20059;-87
2023/08/27 13:50:38;;;;;;;4.35;1.77;;;;;;;;;;6192358;23;20024;-87
2023/08/27 13:53:04;;;;;;;1.80;1.52;;;;;;;;;;6216187;23;20081;-86
2023/08/27 13:55:32;;;;;;;3.78;1.40;;;;;;;;;;6190302;23;20066;-87
2023/08/27 13:58:00;;;;;;;2.72;1.58;;;;;;;;;;6190271;23;20020;-87
2023/08/27 14:00:26;;;;;;;3.53;1.60;;;;;;;;;;6215760;23;20012;-86
2023/08/27 14:02:52;;;;;;;2.97;1.80;;;;;;;;;;6190472;23;20020;-86
2023/08/27 14:05:18;;;;;;;3.00;1.30;;;;;;;;;;6190245;23;20070;-87
2023/08/27 14:07:44;;;;;;;2.10;1.40;;;;;;;;;;6215382;23;20015;-86
2023/08/27 14:10:11;;;;;;;8.32;1.85;;;;;;;;;;6192034;23;20027;-86
2023/08/27 14:12:37;;;;;;;2.20;1.33;;;;;;;;;;6189309;23;20017;-86
2023/08/27 14:15:03;;;;;;;1.75;1.48;;;;;;;;;;6215563;23;20012;-86
2023/08/27 14:17:29;;;;;;;2.45;1.40;;;;;;;;;;6190298;23;20017;-86
2023/08/27 14:19:55;;;;;;;4.05;1.50;;;;;;;;;;6190890;23;20020;-87
2023/08/27 14:22:25;;;;;;;4.32;1.40;;;;;;;;;;6190561;23;20115;-86
2023/08/27 14:24:51;;;;;;;2.22;1.25;;;;;;;;;;6215995;23;20433;-86
2023/08/27 14:27:20;;;;;;;2.83;1.27;;;;;;;;;;6215186;23;20019;-86
2023/08/27 14:29:46;;;;;;;1.65;1.05;;;;;;;;;;6190512;23;20016;-85
2023/08/27 14:32:12;;;;;;;1.38;1.27;;;;;;;;;;6214919;23;20444;-86